sensor_id;sensor_type;location;lat;lon;timestamp;pressure;altitude;pressure_sealevel;temperature;humidity
24610;BME280;12758;47.890;11.694;2023-12-07T00:02:17;93841.41;;;1.03;100.00
24610;BME280;12758;47.890;11.694;2023-12-07T00:04:44;93840.88;;;1.11;100.00
24610;BME280;12758;47.890;11.694;2023-12-07T00:07:10;93832.84;;;1.21;100.00
24610;BME280;12758;47.890;11.694;2023-12-07T00:09:36;93841.41;;;1.08;100.00
24610;BME280;12758;47.890;11.694;2023-12-07T00:12:02;93844.38;;;1.06;100.00
24610;BME280;12758;47.890;11.694;2023-12-07T00:14:28;93844.13;;;0.87;100.00
24610;BME280;12758;47.890;11.694;2023-12-07T00:16:54;93845.72;;;0.93;100.00
24610;BME280;12758;47.890;11.694;2023-12-07T00:19:20;93849.44;;;0.98;100.00
24610;BME280;12758;47.890;11.694;2023-12-07T00:21:46;93852.66;;;0.95;100.00
24610;BME280;12758;47.890;11.694;2023-12-07T00:24:12;93853.72;;;0.93;100.00
24610;BME280;12758;47.890;11.694;2023-12-07T00:26:38;93856.66;;;0.97;100.00
24610;BME280;12758;47.890;11.694;2023-12-07T00:29:04;93854.25;;;0.85;100.00
24610;BME280;12758;47.890;11.694;2023-12-07T00:31:30;93852.66;;;0.74;100.00
24610;BME280;12758;47.890;11.694;2023-12-07T00:33:57;93857.97;;;0.64;100.00
24610;BME280;12758;47.890;11.694;2023-12-07T00:36:23;93858.25;;;0.57;100.00
24610;BME280;12758;47.890;11.694;2023-12-07T00:38:49;93860.63;;;0.54;100.00
24610;BME280;12758;47.890;11.694;2023-12-07T00:41:15;93860.38;;;0.60;100.00
24610;BME280;12758;47.890;11.694;2023-12-07T00:43:41;93859.59;;;0.55;100.00
24610;BME280;12758;47.890;11.694;2023-12-07T00:46:07;93865.47;;;0.52;100.00
24610;BME280;12758;47.890;11.694;2023-12-07T00:48:33;93862.25;;;0.50;100.00
24610;BME280;12758;47.890;11.694;2023-12-07T00:50:59;93864.91;;;0.44;100.00
24610;BME280;12758;47.890;11.694;2023-12-07T00:53:25;93857.72;;;0.60;100.00
24610;BME280;12758;47.890;11.694;2023-12-07T00:55:52;93859.03;;;0.47;100.00
24610;BME280;12758;47.890;11.694;2023-12-07T00:58:18;93863.84;;;0.40;100.00
24610;BME280;12758;47.890;11.694;2023-12-07T01:00:44;93863.53;;;0.27;100.00
24610;BME280;12758;47.890;11.694;2023-12-07T01:03:10;93869.66;;;0.22;100.00
24610;BME280;12758;47.890;11.694;2023-12-07T01:05:36;93861.66;;;0.17;100.00
24610;BME280;12758;47.890;11.694;2023-12-07T01:08:02;93872.81;;;0.09;100.00
24610;BME280;12758;47.890;11.694;2023-12-07T01:10:29;93872.56;;;0.05;100.00
24610;BME280;12758;47.890;11.694;2023-12-07T01:12:55;93880.31;;;0.07;100.00
24610;BME280;12758;47.890;11.694;2023-12-07T01:15:21;93875.00;;;0.22;100.00
24610;BME280;12758;47.890;11.694;2023-12-07T01:17:47;93884.03;;;0.16;100.00
24610;BME280;12758;47.890;11.694;2023-12-07T01:20:13;93881.38;;;0.11;100.00
24610;BME280;12758;47.890;11.694;2023-12-07T01:22:39;93886.72;;;0.11;100.00
24610;BME280;12758;47.890;11.694;2023-12-07T01:25:06;93883.50;;;0.09;100.00
24610;BME280;12758;47.890;11.694;2023-12-07T01:27:33;93884.06;;;0.11;100.00
24610;BME280;12758;47.890;11.694;2023-12-07T01:29:59;93887.28;;;0.28;100.00
24610;BME280;12758;47.890;11.694;2023-12-07T01:32:25;93892.09;;;0.31;100.00
24610;BME280;12758;47.890;11.694;2023-12-07T01:34:51;93892.13;;;0.41;100.00
24610;BME280;12758;47.890;11.694;2023-12-07T01:37:17;93893.72;;;0.37;100.00
24610;BME280;12758;47.890;11.694;2023-12-07T01:39:43;93896.41;;;0.32;100.00
24610;BME280;12758;47.890;11.694;2023-12-07T01:42:10;93908.63;;;0.28;100.00
24610;BME280;12758;47.890;11.694;2023-12-07T01:44:37;93897.97;;;0.28;100.00
24610;BME280;12758;47.890;11.694;2023-12-07T01:47:04;93903.84;;;0.30;100.00
24610;BME280;12758;47.890;11.694;2023-12-07T01:49:30;93906.28;;;0.47;100.00
24610;BME280;12758;47.890;11.694;2023-12-07T01:51:56;93909.25;;;0.66;100.00
24610;BME280;12758;47.890;11.694;2023-12-07T01:54:23;93913.53;;;0.52;100.00
24610;BME280;12758;47.890;11.694;2023-12-07T01:56:50;93917.75;;;0.47;100.00
24610;BME280;12758;47.890;11.694;2023-12-07T01:59:16;93919.88;;;0.35;100.00
24610;BME280;12758;47.890;11.694;2023-12-07T02:01:42;93919.41;;;0.59;100.00
24610;BME280;12758;47.890;11.694;2023-12-07T02:04:10;93918.34;;;0.55;100.00
24610;BME280;12758;47.890;11.694;2023-12-07T02:06:36;93922.84;;;0.54;100.00
24610;BME280;12758;47.890;11.694;2023-12-07T02:09:02;93922.63;;;0.66;100.00
24610;BME280;12758;47.890;11.694;2023-12-07T02:11:29;93925.53;;;0.49;100.00
24610;BME280;12758;47.890;11.694;2023-12-07T02:13:55;93925.53;;;0.59;100.00
24610;BME280;12758;47.890;11.694;2023-12-07T02:16:25;93931.16;;;0.63;100.00
24610;BME280;12758;47.890;11.694;2023-12-07T02:18:56;93934.88;;;0.52;100.00
24610;BME280;12758;47.890;11.694;2023-12-07T02:21:30;93930.88;;;0.49;100.00
24610;BME280;12758;47.890;11.694;2023-12-07T02:23:59;93939.16;;;0.58;100.00
24610;BME280;12758;47.890;11.694;2023-12-07T02:26:31;93948.19;;;0.36;100.00
24610;BME280;12758;47.890;11.694;2023-12-07T02:28:57;93939.16;;;0.58;100.00
24610;BME280;12758;47.890;11.694;2023-12-07T02:31:23;93943.41;;;0.54;100.00
24610;BME280;12758;47.890;11.694;2023-12-07T02:33:49;93946.09;;;0.49;100.00
24610;BME280;12758;47.890;11.694;2023-12-07T02:36:15;93944.53;;;0.68;100.00
24610;BME280;12758;47.890;11.694;2023-12-07T02:38:44;93944.56;;;0.78;100.00
24610;BME280;12758;47.890;11.694;2023-12-07T02:41:12;93946.69;;;0.91;100.00
24610;BME280;12758;47.890;11.694;2023-12-07T02:43:39;93952.00;;;0.66;100.00
24610;BME280;12758;47.890;11.694;2023-12-07T02:46:05;93949.84;;;0.63;100.00
24610;BME280;12758;47.890;11.694;2023-12-07T02:48:31;93950.38;;;0.60;100.00
24610;BME280;12758;47.890;11.694;2023-12-07T02:50:57;93950.09;;;0.51;100.00
24610;BME280;12758;47.890;11.694;2023-12-07T02:53:23;93954.66;;;0.66;100.00
24610;BME280;12758;47.890;11.694;2023-12-07T02:55:49;93953.66;;;0.87;100.00
24610;BME280;12758;47.890;11.694;2023-12-07T02:58:15;93964.84;;;0.74;100.00
24610;BME280;12758;47.890;11.694;2023-12-07T03:00:42;93960.56;;;0.68;100.00
24610;BME280;12758;47.890;11.694;2023-12-07T03:03:07;93967.50;;;0.69;100.00
24610;BME280;12758;47.890;11.694;2023-12-07T03:05:33;93968.84;;;0.72;100.00
24610;BME280;12758;47.890;11.694;2023-12-07T03:07:59;93971.41;;;0.41;100.00
24610;BME280;12758;47.890;11.694;2023-12-07T03:10:25;93973.88;;;0.63;100.00
24610;BME280;12758;47.890;11.694;2023-12-07T03:12:51;93977.09;;;0.65;100.00
24610;BME280;12758;47.890;11.694;2023-12-07T03:15:17;93980.53;;;0.45;100.00
24610;BME280;12758;47.890;11.694;2023-12-07T03:17:44;93976.97;;;0.24;100.00
24610;BME280;12758;47.890;11.694;2023-12-07T03:20:11;93971.66;;;0.34;100.00
24610;BME280;12758;47.890;11.694;2023-12-07T03:22:37;93973.84;;;0.42;100.00
24610;BME280;12758;47.890;11.694;2023-12-07T03:25:04;93974.41;;;0.60;100.00
24610;BME280;12758;47.890;11.694;2023-12-07T03:27:30;93973.06;;;0.57;100.00
24610;BME280;12758;47.890;11.694;2023-12-07T03:29:56;93971.75;;;0.55;100.00
24610;BME280;12758;47.890;11.694;2023-12-07T03:32:22;93974.41;;;0.55;100.00
24610;BME280;12758;47.890;11.694;2023-12-07T03:34:49;93967.50;;;0.69;100.00
24610;BME280;12758;47.890;11.694;2023-12-07T03:37:15;93965.84;;;0.58;100.00
24610;BME280;12758;47.890;11.694;2023-12-07T03:39:41;93976.06;;;0.71;100.00
24610;BME280;12758;47.890;11.694;2023-12-07T03:42:07;93974.41;;;0.55;100.00
24610;BME280;12758;47.890;11.694;2023-12-07T03:44:33;93976.06;;;0.86;100.00
24610;BME280;12758;47.890;11.694;2023-12-07T03:46:59;93983.00;;;0.72;100.00
24610;BME280;12758;47.890;11.694;2023-12-07T03:49:25;93973.66;;;0.75;100.00
24610;BME280;12758;47.890;11.694;2023-12-07T03:51:51;93976.06;;;0.71;100.00
24610;BME280;12758;47.890;11.694;2023-12-07T03:54:17;93983.00;;;0.72;100.00
24610;BME280;12758;47.890;11.694;2023-12-07T03:56:44;93990.97;;;0.57;100.00
24610;BME280;12758;47.890;11.694;2023-12-07T03:59:10;93996.06;;;0.68;100.00
24610;BME280;12758;47.890;11.694;2023-12-07T04:01:36;93996.41;;;0.87;100.00
24610;BME280;12758;47.890;11.694;2023-12-07T04:04:02;93992.66;;;0.93;100.00
24610;BME280;12758;47.890;11.694;2023-12-07T04:06:28;94008.44;;;1.05;100.00
24610;BME280;12758;47.890;11.694;2023-12-07T04:08:54;94006.59;;;1.11;100.00
24610;BME280;12758;47.890;11.694;2023-12-07T04:11:20;94011.66;;;1.17;100.00
24610;BME280;12758;47.890;11.694;2023-12-07T04:13:47;94007.13;;;1.18;100.00
24610;BME280;12758;47.890;11.694;2023-12-07T04:16:13;94022.91;;;1.30;100.00
24610;BME280;12758;47.890;11.694;2023-12-07T04:18:39;94025.59;;;1.20;100.00
24610;BME280;12758;47.890;11.694;2023-12-07T04:21:05;94021.84;;;1.31;100.00
24610;BME280;12758;47.890;11.694;2023-12-07T04:23:31;94031.75;;;1.30;100.00
24610;BME280;12758;47.890;11.694;2023-12-07T04:25:57;94027.72;;;1.28;100.00
24610;BME280;12758;47.890;11.694;2023-12-07T04:28:23;94028.50;;;1.28;100.00
24610;BME280;12758;47.890;11.694;2023-12-07T04:30:49;94020.53;;;1.38;100.00
24610;BME280;12758;47.890;11.694;2023-12-07T04:33:15;94028.03;;;1.42;100.00
24610;BME280;12758;47.890;11.694;2023-12-07T04:35:41;94036.84;;;1.32;100.00
24610;BME280;12758;47.890;11.694;2023-12-07T04:38:07;94030.69;;;1.36;100.00
24610;BME280;12758;47.890;11.694;2023-12-07T04:40:33;94039.50;;;1.42;100.00
24610;BME280;12758;47.890;11.694;2023-12-07T04:43:00;94036.56;;;1.49;100.00
24610;BME280;12758;47.890;11.694;2023-12-07T04:45:26;94036.03;;;1.36;100.00
24610;BME280;12758;47.890;11.694;2023-12-07T04:47:52;94046.19;;;1.39;100.00
24610;BME280;12758;47.890;11.694;2023-12-07T04:50:18;94040.31;;;1.43;100.00
24610;BME280;12758;47.890;11.694;2023-12-07T04:52:44;94042.72;;;1.39;100.00
24610;BME280;12758;47.890;11.694;2023-12-07T04:55:10;94053.13;;;1.30;100.00
24610;BME280;12758;47.890;11.694;2023-12-07T04:57:36;94049.38;;;1.26;100.00
24610;BME280;12758;47.890;11.694;2023-12-07T05:00:03;94056.88;;;1.29;100.00
24610;BME280;12758;47.890;11.694;2023-12-07T05:02:31;94055.81;;;1.40;100.00
24610;BME280;12758;47.890;11.694;2023-12-07T05:04:58;94052.00;;;1.06;100.00
24610;BME280;12758;47.890;11.694;2023-12-07T05:07:24;94048.03;;;1.13;100.00
24610;BME280;12758;47.890;11.694;2023-12-07T05:09:50;94048.56;;;1.31;100.00
24610;BME280;12758;47.890;11.694;2023-12-07T05:12:16;94058.22;;;1.37;100.00
24610;BME280;12758;47.890;11.694;2023-12-07T05:14:42;94055.81;;;1.40;100.00
24610;BME280;12758;47.890;11.694;2023-12-07T05:17:09;94055.28;;;1.49;100.00
24610;BME280;12758;47.890;11.694;2023-12-07T05:19:35;94053.69;;;1.48;100.00
24610;BME280;12758;47.890;11.694;2023-12-07T05:22:01;94049.94;;;1.49;100.00
24610;BME280;12758;47.890;11.694;2023-12-07T05:24:27;94054.19;;;1.34;100.00
24610;BME280;12758;47.890;11.694;2023-12-07T05:26:53;94054.22;;;1.50;100.00
24610;BME280;12758;47.890;11.694;2023-12-07T05:29:19;94056.34;;;1.53;100.00
24610;BME280;12758;47.890;11.694;2023-12-07T05:31:48;94060.91;;;1.52;100.00
24610;BME280;12758;47.890;11.694;2023-12-07T05:34:15;94051.00;;;1.53;100.00
24610;BME280;12758;47.890;11.694;2023-12-07T05:36:41;94058.25;;;1.57;100.00
24610;BME280;12758;47.890;11.694;2023-12-07T05:39:07;94052.88;;;1.62;100.00
24610;BME280;12758;47.890;11.694;2023-12-07T05:41:33;94052.34;;;1.66;100.00
24610;BME280;12758;47.890;11.694;2023-12-07T05:43:59;94053.13;;;1.51;100.00
24610;BME280;12758;47.890;11.694;2023-12-07T05:46:25;94057.44;;;1.52;100.00
24610;BME280;12758;47.890;11.694;2023-12-07T05:48:51;94051.53;;;1.60;100.00
24610;BME280;12758;47.890;11.694;2023-12-07T05:51:18;94050.47;;;1.56;100.00
24610;BME280;12758;47.890;11.694;2023-12-07T05:53:45;94049.91;;;1.28;100.00
24610;BME280;12758;47.890;11.694;2023-12-07T05:56:11;94043.75;;;1.38;100.00
24610;BME280;12758;47.890;11.694;2023-12-07T05:58:38;94043.00;;;1.58;100.00
24610;BME280;12758;47.890;11.694;2023-12-07T06:01:04;94044.06;;;1.62;100.00
24610;BME280;12758;47.890;11.694;2023-12-07T06:03:30;94041.94;;;1.64;100.00
24610;BME280;12758;47.890;11.694;2023-12-07T06:05:57;94044.06;;;1.67;100.00
24610;BME280;12758;47.890;11.694;2023-12-07T06:08:24;94054.75;;;1.72;100.00
24610;BME280;12758;47.890;11.694;2023-12-07T06:10:50;94049.41;;;1.62;100.00
24610;BME280;12758;47.890;11.694;2023-12-07T06:13:16;94046.19;;;1.60;100.00
24610;BME280;12758;47.890;11.694;2023-12-07T06:15:42;94052.63;;;1.64;100.00
24610;BME280;12758;47.890;11.694;2023-12-07T06:18:08;94046.75;;;1.67;100.00
24610;BME280;12758;47.890;11.694;2023-12-07T06:20:34;94052.09;;;1.67;100.00
24610;BME280;12758;47.890;11.694;2023-12-07T06:23:00;94048.88;;;1.65;100.00
24610;BME280;12758;47.890;11.694;2023-12-07T06:25:28;94050.47;;;1.66;100.00
24610;BME280;12758;47.890;11.694;2023-12-07T06:27:54;94048.34;;;1.68;100.00
24610;BME280;12758;47.890;11.694;2023-12-07T06:30:21;94052.38;;;1.71;100.00
24610;BME280;12758;47.890;11.694;2023-12-07T06:32:47;94052.91;;;1.68;100.00
24610;BME280;12758;47.890;11.694;2023-12-07T06:35:14;94049.44;;;1.67;100.00
24610;BME280;12758;47.890;11.694;2023-12-07T06:37:41;94053.16;;;1.61;100.00
24610;BME280;12758;47.890;11.694;2023-12-07T06:40:09;94051.03;;;1.58;100.00
24610;BME280;12758;47.890;11.694;2023-12-07T06:42:36;94054.22;;;1.65;100.00
24610;BME280;12758;47.890;11.694;2023-12-07T06:45:02;94055.03;;;1.55;100.00
24610;BME280;12758;47.890;11.694;2023-12-07T06:47:28;94057.41;;;1.47;100.00
24610;BME280;12758;47.890;11.694;2023-12-07T06:49:54;94056.91;;;1.45;100.00
24610;BME280;12758;47.890;11.694;2023-12-07T06:52:21;94063.06;;;1.45;100.00
24610;BME280;12758;47.890;11.694;2023-12-07T06:54:47;94066.50;;;1.35;100.00
24610;BME280;12758;47.890;11.694;2023-12-07T06:57:13;94063.56;;;1.27;100.00
24610;BME280;12758;47.890;11.694;2023-12-07T06:59:39;94063.25;;;1.08;100.00
24610;BME280;12758;47.890;11.694;2023-12-07T07:02:06;94064.88;;;1.24;100.00
24610;BME280;12758;47.890;11.694;2023-12-07T07:04:32;94064.34;;;1.22;100.00
24610;BME280;12758;47.890;11.694;2023-12-07T07:06:58;94068.09;;;1.36;100.00
24610;BME280;12758;47.890;11.694;2023-12-07T07:09:24;94064.38;;;1.43;100.00
24610;BME280;12758;47.890;11.694;2023-12-07T07:11:50;94068.09;;;1.26;100.00
24610;BME280;12758;47.890;11.694;2023-12-07T07:14:16;94070.50;;;1.38;100.00
24610;BME280;12758;47.890;11.694;2023-12-07T07:16:43;94070.28;;;1.45;100.00
24610;BME280;12758;47.890;11.694;2023-12-07T07:19:10;94064.94;;;1.45;100.00
24610;BME280;12758;47.890;11.694;2023-12-07T07:21:36;94067.06;;;1.43;100.00
24610;BME280;12758;47.890;11.694;2023-12-07T07:24:02;94069.44;;;1.34;100.00
24610;BME280;12758;47.890;11.694;2023-12-07T07:26:28;94068.09;;;1.16;100.00
24610;BME280;12758;47.890;11.694;2023-12-07T07:28:54;94062.75;;;1.26;100.00
24610;BME280;12758;47.890;11.694;2023-12-07T07:31:20;94061.66;;;1.17;100.00
24610;BME280;12758;47.890;11.694;2023-12-07T07:33:47;94066.47;;;1.25;100.00
24610;BME280;12758;47.890;11.694;2023-12-07T07:36:13;94068.09;;;1.26;100.00
24610;BME280;12758;47.890;11.694;2023-12-07T07:38:40;94065.69;;;1.25;100.00
24610;BME280;12758;47.890;11.694;2023-12-07T07:41:06;94065.44;;;1.26;100.00
24610;BME280;12758;47.890;11.694;2023-12-07T07:43:32;94068.09;;;1.26;100.00
24610;BME280;12758;47.890;11.694;2023-12-07T07:45:59;94069.44;;;1.29;100.00
24610;BME280;12758;47.890;11.694;2023-12-07T07:48:26;94058.47;;;1.30;100.00
24610;BME280;12758;47.890;11.694;2023-12-07T07:50:52;94071.88;;;1.35;100.00
24610;BME280;12758;47.890;11.694;2023-12-07T07:53:18;94073.44;;;1.16;100.00
24610;BME280;12758;47.890;11.694;2023-12-07T07:55:44;94069.16;;;1.30;100.00
24610;BME280;12758;47.890;11.694;2023-12-07T07:58:10;94075.00;;;1.07;100.00
24610;BME280;12758;47.890;11.694;2023-12-07T08:00:37;94074.41;;;0.89;100.00
24610;BME280;12758;47.890;11.694;2023-12-07T08:03:03;94073.94;;;1.08;100.00
24610;BME280;12758;47.890;11.694;2023-12-07T08:05:29;94072.84;;;0.99;100.00
24610;BME280;12758;47.890;11.694;2023-12-07T08:07:55;94069.34;;;0.93;100.00
24610;BME280;12758;47.890;11.694;2023-12-07T08:10:21;94066.97;;;1.02;100.00
24610;BME280;12758;47.890;11.694;2023-12-07T08:12:47;94064.31;;;1.12;100.00
24610;BME280;12758;47.890;11.694;2023-12-07T08:15:13;94062.47;;;1.17;100.00
24610;BME280;12758;47.890;11.694;2023-12-07T08:17:39;94068.34;;;1.25;100.00
24610;BME280;12758;47.890;11.694;2023-12-07T08:20:06;94066.47;;;1.25;100.00
24610;BME280;12758;47.890;11.694;2023-12-07T08:22:34;94069.16;;;1.30;100.00
24610;BME280;12758;47.890;11.694;2023-12-07T08:25:01;94065.94;;;1.28;100.00
24610;BME280;12758;47.890;11.694;2023-12-07T08:27:27;94069.16;;;1.20;100.00
24610;BME280;12758;47.890;11.694;2023-12-07T08:29:53;94066.47;;;1.15;100.00
24610;BME280;12758;47.890;11.694;2023-12-07T08:32:19;94065.94;;;1.28;100.00
24610;BME280;12758;47.890;11.694;2023-12-07T08:34:46;94071.28;;;1.18;100.00
24610;BME280;12758;47.890;11.694;2023-12-07T08:37:12;94066.47;;;1.25;100.00
24610;BME280;12758;47.890;11.694;2023-12-07T08:39:38;94069.13;;;1.15;100.00
24610;BME280;12758;47.890;11.694;2023-12-07T08:42:05;94069.69;;;1.22;100.00
24610;BME280;12758;47.890;11.694;2023-12-07T08:44:31;94073.19;;;1.23;100.00
24610;BME280;12758;47.890;11.694;2023-12-07T08:46:57;94064.75;;;0.78;100.00
24610;BME280;12758;47.890;11.694;2023-12-07T08:49:23;94073.56;;;0.21;100.00
24610;BME280;12758;47.890;11.694;2023-12-07T08:51:49;94077.53;;;0.13;100.00
24610;BME280;12758;47.890;11.694;2023-12-07T08:54:15;94073.66;;;0.36;100.00
24610;BME280;12758;47.890;11.694;2023-12-07T08:56:43;94081.16;;;0.39;100.00
24610;BME280;12758;47.890;11.694;2023-12-07T08:59:10;94077.00;;;0.16;100.00
24610;BME280;12758;47.890;11.694;2023-12-07T09:01:36;94083.09;;;0.07;100.00
24610;BME280;12758;47.890;11.694;2023-12-07T09:04:02;94077.78;;;0.12;100.00
24610;BME280;12758;47.890;11.694;2023-12-07T09:06:28;94077.44;;;0.03;100.00
24610;BME280;12758;47.890;11.694;2023-12-07T09:08:54;94080.34;;;-0.04;100.00
24610;BME280;12758;47.890;11.694;2023-12-07T09:11:21;94078.25;;;0.04;100.00
24610;BME280;12758;47.890;11.694;2023-12-07T09:13:47;94080.44;;;0.12;100.00
24610;BME280;12758;47.890;11.694;2023-12-07T09:16:13;94077.34;;;0.30;100.00
24610;BME280;12758;47.890;11.694;2023-12-07T09:18:41;94083.16;;;0.17;100.00
24610;BME280;12758;47.890;11.694;2023-12-07T09:21:07;94072.00;;;0.30;100.00
24610;BME280;12758;47.890;11.694;2023-12-07T09:23:33;94078.03;;;0.10;100.00
24610;BME280;12758;47.890;11.694;2023-12-07T09:26:00;94067.53;;;0.41;100.00
24610;BME280;12758;47.890;11.694;2023-12-07T09:28:26;94064.69;;;0.63;100.00
24610;BME280;12758;47.890;11.694;2023-12-07T09:30:52;94072.59;;;0.37;100.00
24610;BME280;12758;47.890;11.694;2023-12-07T09:33:19;94070.41;;;0.29;100.00
24610;BME280;12758;47.890;11.694;2023-12-07T09:35:45;94079.41;;;0.18;100.00
24610;BME280;12758;47.890;11.694;2023-12-07T09:38:11;94073.31;;;0.28;100.00
24610;BME280;12758;47.890;11.694;2023-12-07T09:40:37;94072.47;;;0.17;100.00
24610;BME280;12758;47.890;11.694;2023-12-07T09:43:03;94068.84;;;0.38;100.00
24610;BME280;12758;47.890;11.694;2023-12-07T09:45:29;94071.03;;;0.46;100.00
24610;BME280;12758;47.890;11.694;2023-12-07T09:47:55;94060.81;;;0.33;100.00
24610;BME280;12758;47.890;11.694;2023-12-07T09:50:22;94062.13;;;0.31;100.00
24610;BME280;12758;47.890;11.694;2023-12-07T09:52:48;94061.25;;;0.15;100.00
24610;BME280;12758;47.890;11.694;2023-12-07T09:55:16;94058.63;;;0.25;100.00
24610;BME280;12758;47.890;11.694;2023-12-07T09:57:42;94059.66;;;0.19;100.00
24610;BME280;12758;47.890;11.694;2023-12-07T10:00:09;94066.63;;;0.20;100.00
24610;BME280;12758;47.890;11.694;2023-12-07T10:02:39;94059.66;;;0.19;100.00
24610;BME280;12758;47.890;11.694;2023-12-07T10:05:07;94056.41;;;0.07;100.00
24610;BME280;12758;47.890;11.694;2023-12-07T10:07:34;94054.09;;;0.26;100.00
24610;BME280;12758;47.890;11.694;2023-12-07T10:10:02;94049.50;;;0.16;100.00
24610;BME280;12758;47.890;11.694;2023-12-07T10:12:28;94046.69;;;0.33;100.00
24610;BME280;12758;47.890;11.694;2023-12-07T10:14:54;94046.22;;;0.51;100.00
24610;BME280;12758;47.890;11.694;2023-12-07T10:17:20;94040.50;;;0.27;100.00
24610;BME280;12758;47.890;11.694;2023-12-07T10:19:47;94046.41;;;0.34;100.00
24610;BME280;12758;47.890;11.694;2023-12-07T10:22:34;94040.97;;;0.14;100.00
24610;BME280;12758;47.890;11.694;2023-12-07T10:25:00;94047.44;;;0.28;100.00
24610;BME280;12758;47.890;11.694;2023-12-07T10:27:26;94036.28;;;0.41;100.00
24610;BME280;12758;47.890;11.694;2023-12-07T10:29:53;94042.59;;;0.20;100.00
24610;BME280;12758;47.890;11.694;2023-12-07T10:32:21;94045.88;;;0.32;100.00
24610;BME280;12758;47.890;11.694;2023-12-07T10:34:47;94046.16;;;0.41;100.00
24610;BME280;12758;47.890;11.694;2023-12-07T10:37:13;94034.25;;;0.59;100.00
24610;BME280;12758;47.890;11.694;2023-12-07T10:39:40;94023.31;;;0.70;100.00
24610;BME280;12758;47.890;11.694;2023-12-07T10:42:07;94024.03;;;0.51;100.00
24610;BME280;12758;47.890;11.694;2023-12-07T10:44:35;94027.78;;;0.50;100.00
24610;BME280;12758;47.890;11.694;2023-12-07T10:47:04;94030.78;;;0.58;100.00
24610;BME280;12758;47.890;11.694;2023-12-07T10:49:31;94020.09;;;0.58;100.00
24610;BME280;12758;47.890;11.694;2023-12-07T10:51:59;94027.78;;;0.50;100.00
24610;BME280;12758;47.890;11.694;2023-12-07T10:54:30;94020.25;;;0.41;100.00
24610;BME280;12758;47.890;11.694;2023-12-07T10:57:01;94023.72;;;0.37;100.00
24610;BME280;12758;47.890;11.694;2023-12-07T10:59:30;94017.66;;;0.52;100.00
24610;BME280;12758;47.890;11.694;2023-12-07T11:01:57;94014.94;;;0.41;100.00
24610;BME280;12758;47.890;11.694;2023-12-07T11:04:23;94010.19;;;0.59;100.00
24610;BME280;12758;47.890;11.694;2023-12-07T11:06:50;94002.78;;;0.71;100.00
24610;BME280;12758;47.890;11.694;2023-12-07T11:09:21;94011.78;;;0.50;100.00
24610;BME280;12758;47.890;11.694;2023-12-07T11:11:51;94016.03;;;0.45;100.00
24610;BME280;12758;47.890;11.694;2023-12-07T11:14:19;94011.72;;;0.44;100.00
24610;BME280;12758;47.890;11.694;2023-12-07T11:16:46;94011.03;;;0.69;100.00
24610;BME280;12758;47.890;11.694;2023-12-07T11:19:48;94002.78;;;0.71;100.00
24610;BME280;12758;47.890;11.694;2023-12-07T11:22:14;94002.53;;;0.88;100.00
24610;BME280;12758;47.890;11.694;2023-12-07T11:24:54;94007.53;;;0.64;100.00
24610;BME280;12758;47.890;11.694;2023-12-07T11:27:21;94013.38;;;0.51;100.00
24610;BME280;12758;47.890;11.694;2023-12-07T11:29:48;94006.03;;;0.93;100.00
24610;BME280;12758;47.890;11.694;2023-12-07T11:32:14;94005.97;;;0.73;100.00
24610;BME280;12758;47.890;11.694;2023-12-07T11:34:42;93997.47;;;1.02;100.00
24610;BME280;12758;47.890;11.694;2023-12-07T11:37:08;93979.31;;;1.14;100.00
24610;BME280;12758;47.890;11.694;2023-12-07T11:39:35;93969.16;;;1.11;100.00
24610;BME280;12758;47.890;11.694;2023-12-07T11:42:06;93956.63;;;1.16;100.00
24610;BME280;12758;47.890;11.694;2023-12-07T11:44:33;93963.28;;;1.24;100.00
24610;BME280;12758;47.890;11.694;2023-12-07T11:47:00;93966.72;;;0.79;100.00
24610;BME280;12758;47.890;11.694;2023-12-07T11:49:26;93969.09;;;0.70;100.00
24610;BME280;12758;47.890;11.694;2023-12-07T11:51:54;93968.84;;;0.72;100.00
24610;BME280;12758;47.890;11.694;2023-12-07T11:54:20;93971.50;;;0.61;100.00
24610;BME280;12758;47.890;11.694;2023-12-07T11:56:52;93977.59;;;0.52;100.00
24610;BME280;12758;47.890;11.694;2023-12-07T11:59:18;93973.38;;;0.66;100.00
24610;BME280;12758;47.890;11.694;2023-12-07T12:01:46;93985.09;;;0.60;100.00
24610;BME280;12758;47.890;11.694;2023-12-07T12:04:14;93970.72;;;0.71;100.00
24610;BME280;12758;47.890;11.694;2023-12-07T12:06:40;93978.19;;;0.79;100.00
24610;BME280;12758;47.890;11.694;2023-12-07T12:09:06;93988.84;;;0.59;100.00
24610;BME280;12758;47.890;11.694;2023-12-07T12:11:32;93981.88;;;0.58;100.00
24610;BME280;12758;47.890;11.694;2023-12-07T12:13:58;93974.22;;;0.87;100.00
24610;BME280;12758;47.890;11.694;2023-12-07T12:16:24;93967.56;;;1.05;100.00
24610;BME280;12758;47.890;11.694;2023-12-07T12:18:50;93955.81;;;1.11;100.00
24610;BME280;12758;47.890;11.694;2023-12-07T12:21:17;93947.25;;;1.14;100.00
24610;BME280;12758;47.890;11.694;2023-12-07T12:23:43;93946.72;;;1.17;100.00
24610;BME280;12758;47.890;11.694;2023-12-07T12:26:09;93938.69;;;1.17;100.00
24610;BME280;12758;47.890;11.694;2023-12-07T12:28:36;93942.16;;;1.17;100.00
24610;BME280;12758;47.890;11.694;2023-12-07T12:31:08;93926.41;;;1.16;100.00
24610;BME280;12758;47.890;11.694;2023-12-07T12:33:36;93921.31;;;1.14;100.00
24610;BME280;12758;47.890;11.694;2023-12-07T12:36:04;93915.19;;;1.14;100.00
24610;BME280;12758;47.890;11.694;2023-12-07T12:38:32;93913.31;;;1.14;100.00
24610;BME280;12758;47.890;11.694;2023-12-07T12:40:59;93916.78;;;1.15;100.00
24610;BME280;12758;47.890;11.694;2023-12-07T12:43:25;93909.31;;;1.17;100.00
24610;BME280;12758;47.890;11.694;2023-12-07T12:45:51;93897.00;;;1.16;100.00
24610;BME280;12758;47.890;11.694;2023-12-07T12:48:19;93891.91;;;1.14;100.00